sensor_id;sensor_type;location;lat;lon;timestamp;temperature;humidity
47845;DHT22;33605;48.822;8.796;2023-02-10T00:01:17;1.60;29.40
47845;DHT22;33605;48.822;8.796;2023-02-10T00:03:43;1.60;29.50
47845;DHT22;33605;48.822;8.796;2023-02-10T00:06:10;1.50;29.40
47845;DHT22;33605;48.822;8.796;2023-02-10T00:08:36;1.50;29.40
47845;DHT22;33605;48.822;8.796;2023-02-10T00:11:07;1.50;29.40
47845;DHT22;33605;48.822;8.796;2023-02-10T00:13:34;1.50;29.30
47845;DHT22;33605;48.822;8.796;2023-02-10T00:16:02;1.40;29.10
47845;DHT22;33605;48.822;8.796;2023-02-10T00:18:28;1.40;29.10
47845;DHT22;33605;48.822;8.796;2023-02-10T00:20:54;1.40;29.10
47845;DHT22;33605;48.822;8.796;2023-02-10T00:23:20;1.40;29.20
47845;DHT22;33605;48.822;8.796;2023-02-10T00:25:46;1.30;29.40
47845;DHT22;33605;48.822;8.796;2023-02-10T00:28:11;1.30;29.50
47845;DHT22;33605;48.822;8.796;2023-02-10T00:30:38;1.30;29.60
47845;DHT22;33605;48.822;8.796;2023-02-10T00:33:04;1.20;29.50
47845;DHT22;33605;48.822;8.796;2023-02-10T00:35:30;1.20;29.50
47845;DHT22;33605;48.822;8.796;2023-02-10T00:37:56;1.20;29.40
47845;DHT22;33605;48.822;8.796;2023-02-10T00:40:21;1.20;29.40
47845;DHT22;33605;48.822;8.796;2023-02-10T00:42:47;1.10;29.30
47845;DHT22;33605;48.822;8.796;2023-02-10T00:45:12;1.10;29.60
47845;DHT22;33605;48.822;8.796;2023-02-10T00:47:38;1.10;29.70
47845;DHT22;33605;48.822;8.796;2023-02-10T00:50:04;1.10;29.70
47845;DHT22;33605;48.822;8.796;2023-02-10T00:52:30;1.10;29.60
47845;DHT22;33605;48.822;8.796;2023-02-10T00:54:56;1.00;29.40
47845;DHT22;33605;48.822;8.796;2023-02-10T00:57:22;1.10;29.40
47845;DHT22;33605;48.822;8.796;2023-02-10T00:59:47;1.00;29.40
47845;DHT22;33605;48.822;8.796;2023-02-10T01:02:13;1.00;29.50
47845;DHT22;33605;48.822;8.796;2023-02-10T01:04:39;1.00;29.40
47845;DHT22;33605;48.822;8.796;2023-02-10T01:07:05;1.00;29.40
47845;DHT22;33605;48.822;8.796;2023-02-10T01:09:30;1.00;29.30
47845;DHT22;33605;48.822;8.796;2023-02-10T01:11:56;1.00;29.40
47845;DHT22;33605;48.822;8.796;2023-02-10T01:14:22;0.90;29.40
47845;DHT22;33605;48.822;8.796;2023-02-10T01:16:48;0.90;29.40
47845;DHT22;33605;48.822;8.796;2023-02-10T01:19:15;0.90;29.60
47845;DHT22;33605;48.822;8.796;2023-02-10T01:21:40;0.90;29.70
47845;DHT22;33605;48.822;8.796;2023-02-10T01:24:06;0.80;29.60
47845;DHT22;33605;48.822;8.796;2023-02-10T01:26:33;0.80;29.60
47845;DHT22;33605;48.822;8.796;2023-02-10T01:28:59;0.80;29.70
47845;DHT22;33605;48.822;8.796;2023-02-10T01:31:25;0.70;29.60
47845;DHT22;33605;48.822;8.796;2023-02-10T01:33:52;0.70;29.60
47845;DHT22;33605;48.822;8.796;2023-02-10T01:36:19;0.70;29.60
47845;DHT22;33605;48.822;8.796;2023-02-10T01:38:46;0.60;29.60
47845;DHT22;33605;48.822;8.796;2023-02-10T01:41:13;0.60;29.60
47845;DHT22;33605;48.822;8.796;2023-02-10T01:43:59;0.60;29.60
47845;DHT22;33605;48.822;8.796;2023-02-10T01:46:27;0.60;29.70
47845;DHT22;33605;48.822;8.796;2023-02-10T01:48:55;0.60;29.70
47845;DHT22;33605;48.822;8.796;2023-02-10T01:51:25;0.60;29.70
47845;DHT22;33605;48.822;8.796;2023-02-10T01:53:53;0.50;29.70
47845;DHT22;33605;48.822;8.796;2023-02-10T01:56:19;0.50;29.50
47845;DHT22;33605;48.822;8.796;2023-02-10T01:58:44;0.50;29.50
47845;DHT22;33605;48.822;8.796;2023-02-10T02:01:11;0.50;29.60
47845;DHT22;33605;48.822;8.796;2023-02-10T02:03:37;0.50;29.60
47845;DHT22;33605;48.822;8.796;2023-02-10T02:06:06;0.50;29.70
47845;DHT22;33605;48.822;8.796;2023-02-10T02:08:32;0.50;29.80
47845;DHT22;33605;48.822;8.796;2023-02-10T02:11:17;0.50;30.00
47845;DHT22;33605;48.822;8.796;2023-02-10T02:13:59;0.40;30.00
47845;DHT22;33605;48.822;8.796;2023-02-10T02:28:05;0.30;29.80
47845;DHT22;33605;48.822;8.796;2023-02-10T02:33:53;0.30;29.80
47845;DHT22;33605;48.822;8.796;2023-02-10T02:36:14;0.30;29.90
47845;DHT22;33605;48.822;8.796;2023-02-10T02:38:42;0.20;29.90
47845;DHT22;33605;48.822;8.796;2023-02-10T02:41:09;0.20;30.00
47845;DHT22;33605;48.822;8.796;2023-02-10T02:43:36;0.20;30.00
47845;DHT22;33605;48.822;8.796;2023-02-10T02:54:23;0.20;30.00
47845;DHT22;33605;48.822;8.796;2023-02-10T02:57:16;0.20;30.00
47845;DHT22;33605;48.822;8.796;2023-02-10T03:00:04;0.10;30.00
47845;DHT22;33605;48.822;8.796;2023-02-10T03:02:32;0.10;30.00
47845;DHT22;33605;48.822;8.796;2023-02-10T03:04:58;0.10;30.00
47845;DHT22;33605;48.822;8.796;2023-02-10T03:07:24;0.00;30.20
47845;DHT22;33605;48.822;8.796;2023-02-10T03:09:50;0.00;30.40
47845;DHT22;33605;48.822;8.796;2023-02-10T03:12:16;0.00;30.40
47845;DHT22;33605;48.822;8.796;2023-02-10T03:14:41;-0.10;30.40
47845;DHT22;33605;48.822;8.796;2023-02-10T03:17:07;-0.10;30.40
47845;DHT22;33605;48.822;8.796;2023-02-10T03:19:32;-0.10;30.40
47845;DHT22;33605;48.822;8.796;2023-02-10T03:21:58;-0.10;31.10
47845;DHT22;33605;48.822;8.796;2023-02-10T03:24:24;-0.10;30.30
47845;DHT22;33605;48.822;8.796;2023-02-10T03:26:50;-0.10;30.20
47845;DHT22;33605;48.822;8.796;2023-02-10T03:29:16;-0.10;30.20
47845;DHT22;33605;48.822;8.796;2023-02-10T03:31:41;-0.10;30.30
47845;DHT22;33605;48.822;8.796;2023-02-10T03:34:07;-0.10;30.50
47845;DHT22;33605;48.822;8.796;2023-02-10T03:36:33;-0.10;30.60
47845;DHT22;33605;48.822;8.796;2023-02-10T03:39:02;-0.10;30.50
47845;DHT22;33605;48.822;8.796;2023-02-10T03:41:28;-0.10;30.30
47845;DHT22;33605;48.822;8.796;2023-02-10T03:43:54;-0.10;30.10
47845;DHT22;33605;48.822;8.796;2023-02-10T03:46:19;-0.10;30.00
47845;DHT22;33605;48.822;8.796;2023-02-10T03:48:46;-0.10;29.90
47845;DHT22;33605;48.822;8.796;2023-02-10T03:51:12;-0.10;29.80
47845;DHT22;33605;48.822;8.796;2023-02-10T03:53:38;-0.10;29.90
47845;DHT22;33605;48.822;8.796;2023-02-10T03:56:04;-0.10;30.00
47845;DHT22;33605;48.822;8.796;2023-02-10T03:58:31;-0.10;30.00
47845;DHT22;33605;48.822;8.796;2023-02-10T04:00:56;-0.10;30.00
47845;DHT22;33605;48.822;8.796;2023-02-10T04:03:22;-0.20;30.00
47845;DHT22;33605;48.822;8.796;2023-02-10T04:05:47;-0.10;30.20
47845;DHT22;33605;48.822;8.796;2023-02-10T04:08:13;-0.20;30.10
47845;DHT22;33605;48.822;8.796;2023-02-10T04:10:39;-0.20;30.10
47845;DHT22;33605;48.822;8.796;2023-02-10T04:13:04;-0.20;30.20
47845;DHT22;33605;48.822;8.796;2023-02-10T04:15:30;-0.20;30.40
47845;DHT22;33605;48.822;8.796;2023-02-10T04:17:55;-0.20;30.50
47845;DHT22;33605;48.822;8.796;2023-02-10T04:20:24;-0.30;30.40
47845;DHT22;33605;48.822;8.796;2023-02-10T04:22:50;-0.30;30.30
47845;DHT22;33605;48.822;8.796;2023-02-10T04:25:16;-0.30;30.30
47845;DHT22;33605;48.822;8.796;2023-02-10T04:27:41;-0.30;30.40
47845;DHT22;33605;48.822;8.796;2023-02-10T04:30:08;-0.30;30.50
47845;DHT22;33605;48.822;8.796;2023-02-10T04:32:34;-0.30;30.50
47845;DHT22;33605;48.822;8.796;2023-02-10T04:35:00;-0.40;30.40
47845;DHT22;33605;48.822;8.796;2023-02-10T04:37:26;-0.30;31.00
47845;DHT22;33605;48.822;8.796;2023-02-10T04:39:51;-0.40;30.20
47845;DHT22;33605;48.822;8.796;2023-02-10T04:42:17;-0.30;30.20
47845;DHT22;33605;48.822;8.796;2023-02-10T04:44:43;-0.30;30.20
47845;DHT22;33605;48.822;8.796;2023-02-10T04:47:08;-0.30;30.20
47845;DHT22;33605;48.822;8.796;2023-02-10T04:49:34;-0.30;30.40
47845;DHT22;33605;48.822;8.796;2023-02-10T04:52:00;-0.30;30.50
47845;DHT22;33605;48.822;8.796;2023-02-10T04:54:25;-0.40;30.40
47845;DHT22;33605;48.822;8.796;2023-02-10T04:56:51;-0.40;30.40
47845;DHT22;33605;48.822;8.796;2023-02-10T04:59:16;-0.40;30.20
47845;DHT22;33605;48.822;8.796;2023-02-10T05:01:42;-0.40;30.20
47845;DHT22;33605;48.822;8.796;2023-02-10T05:04:07;-0.40;30.10
47845;DHT22;33605;48.822;8.796;2023-02-10T05:06:33;-0.50;30.00
47845;DHT22;33605;48.822;8.796;2023-02-10T05:08:59;-0.50;30.00
47845;DHT22;33605;48.822;8.796;2023-02-10T05:11:24;-0.50;30.00
47845;DHT22;33605;48.822;8.796;2023-02-10T05:13:50;-0.50;29.90
47845;DHT22;33605;48.822;8.796;2023-02-10T05:16:16;-0.50;29.90
47845;DHT22;33605;48.822;8.796;2023-02-10T05:18:42;-0.50;29.90
47845;DHT22;33605;48.822;8.796;2023-02-10T05:21:09;-0.50;29.90
47845;DHT22;33605;48.822;8.796;2023-02-10T05:23:36;-0.50;30.00
47845;DHT22;33605;48.822;8.796;2023-02-10T05:26:02;-0.50;30.00
47845;DHT22;33605;48.822;8.796;2023-02-10T05:28:28;-0.50;30.20
47845;DHT22;33605;48.822;8.796;2023-02-10T05:30:54;-0.60;30.10
47845;DHT22;33605;48.822;8.796;2023-02-10T05:33:20;-0.60;30.10
47845;DHT22;33605;48.822;8.796;2023-02-10T05:35:45;-0.60;30.70
47845;DHT22;33605;48.822;8.796;2023-02-10T05:38:11;-0.60;30.00
47845;DHT22;33605;48.822;8.796;2023-02-10T05:40:37;-0.60;30.00
47845;DHT22;33605;48.822;8.796;2023-02-10T05:43:03;-0.60;30.20
47845;DHT22;33605;48.822;8.796;2023-02-10T05:45:29;-0.60;30.20
47845;DHT22;33605;48.822;8.796;2023-02-10T05:47:54;-0.70;30.20
47845;DHT22;33605;48.822;8.796;2023-02-10T05:50:20;-0.70;30.10
47845;DHT22;33605;48.822;8.796;2023-02-10T05:52:46;-0.70;30.10
47845;DHT22;33605;48.822;8.796;2023-02-10T05:55:12;-0.70;30.00
47845;DHT22;33605;48.822;8.796;2023-02-10T05:57:37;-0.70;30.00
47845;DHT22;33605;48.822;8.796;2023-02-10T06:00:04;-0.70;30.00
47845;DHT22;33605;48.822;8.796;2023-02-10T06:02:31;-0.70;30.00
47845;DHT22;33605;48.822;8.796;2023-02-10T06:04:56;-0.70;30.00
47845;DHT22;33605;48.822;8.796;2023-02-10T06:07:22;-0.70;30.60
47845;DHT22;33605;48.822;8.796;2023-02-10T06:09:47;-0.70;30.00
47845;DHT22;33605;48.822;8.796;2023-02-10T06:12:13;-0.80;30.00
47845;DHT22;33605;48.822;8.796;2023-02-10T06:14:38;-0.80;30.00
47845;DHT22;33605;48.822;8.796;2023-02-10T06:17:05;-0.80;30.00
47845;DHT22;33605;48.822;8.796;2023-02-10T06:19:37;-0.80;30.00
47845;DHT22;33605;48.822;8.796;2023-02-10T06:22:04;-0.80;29.90
47845;DHT22;33605;48.822;8.796;2023-02-10T06:24:30;-0.80;29.90
47845;DHT22;33605;48.822;8.796;2023-02-10T06:26:56;-0.90;29.80
47845;DHT22;33605;48.822;8.796;2023-02-10T06:29:22;-0.90;29.80
47845;DHT22;33605;48.822;8.796;2023-02-10T06:31:47;-0.90;29.80
47845;DHT22;33605;48.822;8.796;2023-02-10T06:34:13;-0.80;29.80
47845;DHT22;33605;48.822;8.796;2023-02-10T06:36:39;-0.90;30.00
47845;DHT22;33605;48.822;8.796;2023-02-10T06:39:04;-0.80;29.70
47845;DHT22;33605;48.822;8.796;2023-02-10T06:41:31;-0.80;29.70
47845;DHT22;33605;48.822;8.796;2023-02-10T06:43:56;-0.80;29.70
47845;DHT22;33605;48.822;8.796;2023-02-10T06:46:22;-0.80;29.60
47845;DHT22;33605;48.822;8.796;2023-02-10T06:48:48;-0.70;29.80
47845;DHT22;33605;48.822;8.796;2023-02-10T06:51:13;-0.70;29.90
47845;DHT22;33605;48.822;8.796;2023-02-10T06:53:39;-0.70;30.50
47845;DHT22;33605;48.822;8.796;2023-02-10T06:56:05;-0.70;29.90
47845;DHT22;33605;48.822;8.796;2023-02-10T06:58:31;-0.70;29.90
47845;DHT22;33605;48.822;8.796;2023-02-10T07:00:56;-0.60;30.00
47845;DHT22;33605;48.822;8.796;2023-02-10T07:03:24;-0.60;30.10
47845;DHT22;33605;48.822;8.796;2023-02-10T07:05:50;-0.60;30.10
47845;DHT22;33605;48.822;8.796;2023-02-10T07:08:15;-0.60;30.00
47845;DHT22;33605;48.822;8.796;2023-02-10T07:10:41;-0.60;30.00
47845;DHT22;33605;48.822;8.796;2023-02-10T07:13:07;-0.60;30.00
47845;DHT22;33605;48.822;8.796;2023-02-10T07:15:32;-0.60;30.00
47845;DHT22;33605;48.822;8.796;2023-02-10T07:17:58;-0.50;30.30
47845;DHT22;33605;48.822;8.796;2023-02-10T07:20:23;-0.50;30.40
47845;DHT22;33605;48.822;8.796;2023-02-10T07:22:49;-0.50;30.60
47845;DHT22;33605;48.822;8.796;2023-02-10T07:25:17;-0.50;30.60
47845;DHT22;33605;48.822;8.796;2023-02-10T07:27:42;-0.40;30.90
47845;DHT22;33605;48.822;8.796;2023-02-10T07:30:09;-0.40;31.10
47845;DHT22;33605;48.822;8.796;2023-02-10T07:32:35;-0.40;31.20
47845;DHT22;33605;48.822;8.796;2023-02-10T07:35:01;-0.40;31.20
47845;DHT22;33605;48.822;8.796;2023-02-10T07:37:26;-0.30;31.20
47845;DHT22;33605;48.822;8.796;2023-02-10T07:39:52;-0.20;31.30
47845;DHT22;33605;48.822;8.796;2023-02-10T07:42:18;-0.20;31.30
47845;DHT22;33605;48.822;8.796;2023-02-10T07:44:43;-0.10;31.40
47845;DHT22;33605;48.822;8.796;2023-02-10T07:47:10;0.00;31.50
47845;DHT22;33605;48.822;8.796;2023-02-10T07:49:36;0.00;31.40
47845;DHT22;33605;48.822;8.796;2023-02-10T07:52:02;0.10;31.60
47845;DHT22;33605;48.822;8.796;2023-02-10T07:54:27;0.20;31.70
47845;DHT22;33605;48.822;8.796;2023-02-10T07:56:53;0.30;31.70
47845;DHT22;33605;48.822;8.796;2023-02-10T07:59:19;0.40;31.70
47845;DHT22;33605;48.822;8.796;2023-02-10T08:01:44;0.50;31.80
47845;DHT22;33605;48.822;8.796;2023-02-10T08:04:10;0.60;31.80
47845;DHT22;33605;48.822;8.796;2023-02-10T08:06:36;0.60;32.40
47845;DHT22;33605;48.822;8.796;2023-02-10T08:09:02;0.70;31.90
47845;DHT22;33605;48.822;8.796;2023-02-10T08:11:28;0.70;32.00
47845;DHT22;33605;48.822;8.796;2023-02-10T08:13:54;0.80;32.70
47845;DHT22;33605;48.822;8.796;2023-02-10T08:16:19;0.90;32.10
47845;DHT22;33605;48.822;8.796;2023-02-10T08:18:45;0.90;31.90
47845;DHT22;33605;48.822;8.796;2023-02-10T08:21:10;1.00;32.00
47845;DHT22;33605;48.822;8.796;2023-02-10T08:23:36;1.10;32.10
47845;DHT22;33605;48.822;8.796;2023-02-10T08:26:03;1.20;32.30
47845;DHT22;33605;48.822;8.796;2023-02-10T08:28:29;1.40;32.60
47845;DHT22;33605;48.822;8.796;2023-02-10T08:30:59;1.50;32.70
47845;DHT22;33605;48.822;8.796;2023-02-10T08:33:24;1.70;33.10
47845;DHT22;33605;48.822;8.796;2023-02-10T08:35:50;1.80;33.10
47845;DHT22;33605;48.822;8.796;2023-02-10T08:38:16;2.00;33.10
47845;DHT22;33605;48.822;8.796;2023-02-10T08:40:41;2.10;33.10
47845;DHT22;33605;48.822;8.796;2023-02-10T08:43:07;2.30;33.10
47845;DHT22;33605;48.822;8.796;2023-02-10T08:45:32;2.50;33.70
47845;DHT22;33605;48.822;8.796;2023-02-10T08:47:58;2.70;33.00
47845;DHT22;33605;48.822;8.796;2023-02-10T08:50:26;2.80;32.80
47845;DHT22;33605;48.822;8.796;2023-02-10T08:52:52;3.00;32.80
47845;DHT22;33605;48.822;8.796;2023-02-10T08:55:18;3.10;32.60
47845;DHT22;33605;48.822;8.796;2023-02-10T08:57:43;3.20;32.40
47845;DHT22;33605;48.822;8.796;2023-02-10T09:00:09;3.30;32.40
47845;DHT22;33605;48.822;8.796;2023-02-10T09:02:35;3.40;32.30
47845;DHT22;33605;48.822;8.796;2023-02-10T09:05:01;3.50;32.30
47845;DHT22;33605;48.822;8.796;2023-02-10T09:07:27;3.60;32.40
47845;DHT22;33605;48.822;8.796;2023-02-10T09:09:52;3.60;32.30
47845;DHT22;33605;48.822;8.796;2023-02-10T09:12:18;3.70;32.50
47845;DHT22;33605;48.822;8.796;2023-02-10T09:14:44;3.80;32.60
47845;DHT22;33605;48.822;8.796;2023-02-10T09:17:10;3.90;32.80
47845;DHT22;33605;48.822;8.796;2023-02-10T09:19:37;4.00;33.00
47845;DHT22;33605;48.822;8.796;2023-02-10T09:22:05;4.10;33.00
47845;DHT22;33605;48.822;8.796;2023-02-10T09:24:32;4.20;33.30
47845;DHT22;33605;48.822;8.796;2023-02-10T09:26:58;4.40;33.40
47845;DHT22;33605;48.822;8.796;2023-02-10T09:29:24;4.50;33.50
47845;DHT22;33605;48.822;8.796;2023-02-10T09:31:50;4.60;33.50
47845;DHT22;33605;48.822;8.796;2023-02-10T09:34:16;4.80;33.70
47845;DHT22;33605;48.822;8.796;2023-02-10T09:36:42;5.00;33.70
47845;DHT22;33605;48.822;8.796;2023-02-10T09:39:08;5.20;33.70
47845;DHT22;33605;48.822;8.796;2023-02-10T15:46:19;6.20;33.50
47845;DHT22;33605;48.822;8.796;2023-02-10T15:48:47;25.60;14.00
47845;DHT22;33605;48.822;8.796;2023-02-10T15:51:21;24.80;14.00
47845;DHT22;33605;48.822;8.796;2023-02-10T15:53:49;24.10;14.00
47845;DHT22;33605;48.822;8.796;2023-02-10T15:56:15;23.50;14.10
47845;DHT22;33605;48.822;8.796;2023-02-10T15:58:40;22.80;14.10
47845;DHT22;33605;48.822;8.796;2023-02-10T16:01:06;22.20;14.10
47845;DHT22;33605;48.822;8.796;2023-02-10T16:03:32;21.70;14.20
47845;DHT22;33605;48.822;8.796;2023-02-10T16:05:57;21.20;14.30
47845;DHT22;33605;48.822;8.796;2023-02-10T16:08:27;20.70;14.40
47845;DHT22;33605;48.822;8.796;2023-02-10T16:10:54;20.20;15.00
47845;DHT22;33605;48.822;8.796;2023-02-10T16:13:20;19.60;14.50
47845;DHT22;33605;48.822;8.796;2023-02-10T16:15:47;19.30;14.70
47845;DHT22;33605;48.822;8.796;2023-02-10T16:18:18;18.80;14.80
47845;DHT22;33605;48.822;8.796;2023-02-10T16:20:45;18.40;15.00
47845;DHT22;33605;48.822;8.796;2023-02-10T16:23:16;17.90;15.00
47845;DHT22;33605;48.822;8.796;2023-02-10T16:25:42;17.50;15.10
47845;DHT22;33605;48.822;8.796;2023-02-10T16:28:10;17.10;15.30
47845;DHT22;33605;48.822;8.796;2023-02-10T16:30:37;16.70;15.40
47845;DHT22;33605;48.822;8.796;2023-02-10T16:33:03;16.30;15.50
47845;DHT22;33605;48.822;8.796;2023-02-10T16:35:29;15.90;15.70
47845;DHT22;33605;48.822;8.796;2023-02-10T16:37:55;15.60;15.80
47845;DHT22;33605;48.822;8.796;2023-02-10T16:40:31;15.30;15.90
47845;DHT22;33605;48.822;8.796;2023-02-10T16:42:57;15.00;16.30
47845;DHT22;33605;48.822;8.796;2023-02-10T16:45:25;14.70;16.80
47845;DHT22;33605;48.822;8.796;2023-02-10T16:47:51;14.40;16.80
47845;DHT22;33605;48.822;8.796;2023-02-10T16:50:34;14.10;16.80
47845;DHT22;33605;48.822;8.796;2023-02-10T16:53:00;13.80;17.00
47845;DHT22;33605;48.822;8.796;2023-02-10T16:55:26;13.50;16.90
47845;DHT22;33605;48.822;8.796;2023-02-10T16:57:52;13.30;17.10
47845;DHT22;33605;48.822;8.796;2023-02-10T17:00:19;13.00;17.20
47845;DHT22;33605;48.822;8.796;2023-02-10T17:02:45;12.80;17.40
47845;DHT22;33605;48.822;8.796;2023-02-10T17:05:12;12.60;17.60
47845;DHT22;33605;48.822;8.796;2023-02-10T17:07:38;12.40;17.60
47845;DHT22;33605;48.822;8.796;2023-02-10T17:10:08;12.20;17.80
47845;DHT22;33605;48.822;8.796;2023-02-10T17:12:33;12.00;17.80
47845;DHT22;33605;48.822;8.796;2023-02-10T17:14:59;11.80;18.00
47845;DHT22;33605;48.822;8.796;2023-02-10T17:17:25;11.60;18.10
47845;DHT22;33605;48.822;8.796;2023-02-10T17:19:50;11.40;18.30
47845;DHT22;33605;48.822;8.796;2023-02-10T17:22:16;11.20;18.40
47845;DHT22;33605;48.822;8.796;2023-02-10T17:24:42;11.00;18.70
47845;DHT22;33605;48.822;8.796;2023-02-10T17:27:10;10.80;19.00
47845;DHT22;33605;48.822;8.796;2023-02-10T17:29:35;10.60;19.20
47845;DHT22;33605;48.822;8.796;2023-02-10T17:32:01;10.40;19.10
47845;DHT22;33605;48.822;8.796;2023-02-10T17:34:27;10.20;19.30
47845;DHT22;33605;48.822;8.796;2023-02-10T17:36:59;10.00;19.50
47845;DHT22;33605;48.822;8.796;2023-02-10T17:39:24;9.90;20.60
47845;DHT22;33605;48.822;8.796;2023-02-10T17:41:50;9.70;20.50
47845;DHT22;33605;48.822;8.796;2023-02-10T17:44:16;9.60;20.60
47845;DHT22;33605;48.822;8.796;2023-02-10T17:46:42;9.50;20.70
47845;DHT22;33605;48.822;8.796;2023-02-10T17:49:10;9.40;20.90
47845;DHT22;33605;48.822;8.796;2023-02-10T17:51:36;9.30;21.00
47845;DHT22;33605;48.822;8.796;2023-02-10T17:54:02;9.20;21.10
47845;DHT22;33605;48.822;8.796;2023-02-10T17:56:28;9.10;21.20
47845;DHT22;33605;48.822;8.796;2023-02-10T17:58:53;9.10;21.40
47845;DHT22;33605;48.822;8.796;2023-02-10T18:01:27;9.00;21.70
47845;DHT22;33605;48.822;8.796;2023-02-10T18:03:53;8.90;21.80
47845;DHT22;33605;48.822;8.796;2023-02-10T18:06:20;8.80;21.80
47845;DHT22;33605;48.822;8.796;2023-02-10T18:08:47;8.70;21.90
47845;DHT22;33605;48.822;8.796;2023-02-10T18:11:14;8.60;22.20
47845;DHT22;33605;48.822;8.796;2023-02-10T18:13:40;8.60;22.50
47845;DHT22;33605;48.822;8.796;2023-02-10T18:16:06;8.50;22.50
47845;DHT22;33605;48.822;8.796;2023-02-10T18:18:32;8.30;22.50
47845;DHT22;33605;48.822;8.796;2023-02-10T18:20:58;8.30;22.60
47845;DHT22;33605;48.822;8.796;2023-02-10T18:23:24;8.20;22.60
47845;DHT22;33605;48.822;8.796;2023-02-10T18:25:49;8.10;22.60
47845;DHT22;33605;48.822;8.796;2023-02-10T18:28:15;8.10;22.60
47845;DHT22;33605;48.822;8.796;2023-02-10T18:30:45;8.00;22.80
47845;DHT22;33605;48.822;8.796;2023-02-10T18:33:11;7.90;23.10
47845;DHT22;33605;48.822;8.796;2023-02-10T18:35:38;7.90;23.20
47845;DHT22;33605;48.822;8.796;2023-02-10T18:38:05;7.80;23.30
47845;DHT22;33605;48.822;8.796;2023-02-10T18:40:32;7.70;23.30
47845;DHT22;33605;48.822;8.796;2023-02-10T18:42:58;7.60;23.40
47845;DHT22;33605;48.822;8.796;2023-02-10T18:45:24;7.60;23.50
47845;DHT22;33605;48.822;8.796;2023-02-10T18:47:50;7.50;23.50
47845;DHT22;33605;48.822;8.796;2023-02-10T18:50:16;7.40;23.70
47845;DHT22;33605;48.822;8.796;2023-02-10T18:52:42;7.40;24.10
47845;DHT22;33605;48.822;8.796;2023-02-10T18:55:07;7.30;24.20
47845;DHT22;33605;48.822;8.796;2023-02-10T18:57:33;7.20;24.10
47845;DHT22;33605;48.822;8.796;2023-02-10T18:59:59;7.10;24.20
47845;DHT22;33605;48.822;8.796;2023-02-10T19:02:25;7.10;24.20
47845;DHT22;33605;48.822;8.796;2023-02-10T19:04:51;7.00;24.20
47845;DHT22;33605;48.822;8.796;2023-02-10T19:07:17;7.00;24.30
47845;DHT22;33605;48.822;8.796;2023-02-10T19:09:42;6.90;24.40
47845;DHT22;33605;48.822;8.796;2023-02-10T19:12:08;6.90;24.60
47845;DHT22;33605;48.822;8.796;2023-02-10T19:14:34;6.80;24.70
47845;DHT22;33605;48.822;8.796;2023-02-10T19:17:00;6.80;24.70
47845;DHT22;33605;48.822;8.796;2023-02-10T19:19:26;6.70;24.70
47845;DHT22;33605;48.822;8.796;2023-02-10T19:21:51;6.70;24.80
47845;DHT22;33605;48.822;8.796;2023-02-10T19:24:18;6.70;24.80
47845;DHT22;33605;48.822;8.796;2023-02-10T19:26:43;6.60;24.80
47845;DHT22;33605;48.822;8.796;2023-02-10T19:29:09;6.60;24.70
47845;DHT22;33605;48.822;8.796;2023-02-10T19:31:35;6.60;24.70
47845;DHT22;33605;48.822;8.796;2023-02-10T19:34:00;6.50;24.80
47845;DHT22;33605;48.822;8.796;2023-02-10T19:36:26;6.50;25.00
47845;DHT22;33605;48.822;8.796;2023-02-10T19:38:51;6.40;24.90
47845;DHT22;33605;48.822;8.796;2023-02-10T19:41:20;6.40;25.00
47845;DHT22;33605;48.822;8.796;2023-02-10T19:43:47;6.40;25.10
47845;DHT22;33605;48.822;8.796;2023-02-10T19:46:13;6.30;25.20
47845;DHT22;33605;48.822;8.796;2023-02-10T19:48:42;6.30;25.50
47845;DHT22;33605;48.822;8.796;2023-02-10T19:51:13;6.20;25.60
47845;DHT22;33605;48.822;8.796;2023-02-10T19:53:39;6.10;25.90
47845;DHT22;33605;48.822;8.796;2023-02-10T19:56:06;6.00;25.80
47845;DHT22;33605;48.822;8.796;2023-02-10T19:58:33;6.00;25.80
47845;DHT22;33605;48.822;8.796;2023-02-10T20:01:01;5.90;25.70
47845;DHT22;33605;48.822;8.796;2023-02-10T20:03:27;5.80;25.70
47845;DHT22;33605;48.822;8.796;2023-02-10T20:05:53;5.80;25.60
47845;DHT22;33605;48.822;8.796;2023-02-10T20:08:19;5.70;25.60
47845;DHT22;33605;48.822;8.796;2023-02-10T20:10:49;5.70;25.90
47845;DHT22;33605;48.822;8.796;2023-02-10T20:13:15;5.60;26.00
47845;DHT22;33605;48.822;8.796;2023-02-10T20:15:41;5.50;26.00
47845;DHT22;33605;48.822;8.796;2023-02-10T20:18:06;5.50;26.10
47845;DHT22;33605;48.822;8.796;2023-02-10T20:20:32;5.40;26.20
47845;DHT22;33605;48.822;8.796;2023-02-10T20:22:58;5.40;26.30
47845;DHT22;33605;48.822;8.796;2023-02-10T20:25:23;5.30;26.20
47845;DHT22;33605;48.822;8.796;2023-02-10T20:27:49;5.30;26.20
47845;DHT22;33605;48.822;8.796;2023-02-10T20:30:16;5.30;26.20
47845;DHT22;33605;48.822;8.796;2023-02-10T20:32:42;5.20;26.10
47845;DHT22;33605;48.822;8.796;2023-02-10T20:35:07;5.20;26.20
47845;DHT22;33605;48.822;8.796;2023-02-10T20:37:33;5.20;26.50
47845;DHT22;33605;48.822;8.796;2023-02-10T20:39:59;5.20;26.50
47845;DHT22;33605;48.822;8.796;2023-02-10T20:42:24;5.10;26.40
47845;DHT22;33605;48.822;8.796;2023-02-10T20:44:50;5.10;26.40
47845;DHT22;33605;48.822;8.796;2023-02-10T20:47:16;5.10;26.50
47845;DHT22;33605;48.822;8.796;2023-02-10T20:49:42;5.00;26.50
47845;DHT22;33605;48.822;8.796;2023-02-10T20:52:08;5.00;26.50
47845;DHT22;33605;48.822;8.796;2023-02-10T20:54:33;5.00;26.60
47845;DHT22;33605;48.822;8.796;2023-02-10T20:56:59;5.00;26.60
47845;DHT22;33605;48.822;8.796;2023-02-10T20:59:25;5.00;26.70
47845;DHT22;33605;48.822;8.796;2023-02-10T21:01:50;5.00;26.60
47845;DHT22;33605;48.822;8.796;2023-02-10T21:04:17;4.90;26.70
47845;DHT22;33605;48.822;8.796;2023-02-10T21:06:43;4.90;27.00
47845;DHT22;33605;48.822;8.796;2023-02-10T21:09:10;4.90;27.10
47845;DHT22;33605;48.822;8.796;2023-02-10T21:11:35;4.80;27.10
47845;DHT22;33605;48.822;8.796;2023-02-10T21:14:01;4.80;27.20
47845;DHT22;33605;48.822;8.796;2023-02-10T21:16:27;4.80;27.20
47845;DHT22;33605;48.822;8.796;2023-02-10T21:18:53;4.70;27.10
47845;DHT22;33605;48.822;8.796;2023-02-10T21:21:20;4.70;27.10
47845;DHT22;33605;48.822;8.796;2023-02-10T21:23:47;4.60;27.00
47845;DHT22;33605;48.822;8.796;2023-02-10T21:26:13;4.60;27.10
47845;DHT22;33605;48.822;8.796;2023-02-10T21:28:40;4.60;27.10
47845;DHT22;33605;48.822;8.796;2023-02-10T21:31:24;4.60;27.40
47845;DHT22;33605;48.822;8.796;2023-02-10T21:33:50;4.50;27.40
47845;DHT22;33605;48.822;8.796;2023-02-10T21:36:23;4.50;27.30
47845;DHT22;33605;48.822;8.796;2023-02-10T21:38:49;4.50;27.40
47845;DHT22;33605;48.822;8.796;2023-02-10T21:41:15;4.50;27.40
47845;DHT22;33605;48.822;8.796;2023-02-10T21:43:59;4.40;27.50
47845;DHT22;33605;48.822;8.796;2023-02-10T21:46:25;4.40;27.60
47845;DHT22;33605;48.822;8.796;2023-02-10T21:48:51;4.30;27.80
47845;DHT22;33605;48.822;8.796;2023-02-10T21:51:17;4.30;28.00
47845;DHT22;33605;48.822;8.796;2023-02-10T21:53:43;4.20;28.10
47845;DHT22;33605;48.822;8.796;2023-02-10T21:56:08;4.20;28.30
47845;DHT22;33605;48.822;8.796;2023-02-10T21:58:34;4.10;28.10
47845;DHT22;33605;48.822;8.796;2023-02-10T22:00:59;4.10;28.10
47845;DHT22;33605;48.822;8.796;2023-02-10T22:03:25;4.10;28.40